Swedesboro, New Jersey
Current Conditions -  °F | °C
As of 2:54 AM on Tuesday 27 Jan 2015 (Local Time) from KPHL Reporting Station
Light Snow Light Snow  
Wind Chill: 14°   Ceiling: 3500
Heat Index: 26°   Visibility: 5mi
Dew Point: 19°   Wind: 14mph
Humidity: 75%   Direction: 360°N
Pressure: 29.72"   Gusts: NA
Location:  39.75°N, 75.31°W
Report Text: KPHL 270754Z 36012KT 5SM -SN SCT028 BKN035 OVC048 M03/M07 A2972 RMK AO2 SLP062 P0000 T10331072
Loading
Personal Weather Stations






























Interactive Weather Map New forecast layout! Learn more

10-Day Weather Forecast

Advertisements
Track Severe Weather on mobile